Rainier — WTEF — position and weather

sailwx.info

Track history (hours):
 
Tides and Currents Weather Stations Pressure Air Temp Water Temp Dewpoint Dewpoint Depression Visibility Wind Speed Wind Dir Waves Ship Positions

Oceanographic research ship Rainier (USA)

Detailed information on ship capabilities available from University of Delaware's Ocean Information Center.

Last reported at 2020-Oct-01 11:00 UTC. Time now 2020-Oct-01 12:18 UTC.
Position N 58°18' W 134°24'.

Type: Other ship. MMSI: 303935000.

Wind from 250

Barometer 1024.2 mb
Air temperature 11.2 ° C
Dewpoint 11.2 ° C

Date/timePositionNaut miles runAvg speedWind from/ knotsBaromVisibWave heightAir tempDewpointWater temp
2020-Oct-01 11:00N 58°18' W 134°24'0 0.0 250 1024.2 11.211.2
2020-Oct-01 10:00N 58°18' W 134°24'0 0.0 250 1023.8 11.511.5
2020-Oct-01 09:00N 58°18' W 134°24'0 0.0 250 1023.2 11.111.1
2020-Oct-01 08:00N 58°18' W 134°24'0 0.0 250 1022.8 11.011.0
2020-Oct-01 07:00N 58°18' W 134°24'0 0.0 250 1022.1 10.410.4
2020-Oct-01 06:00N 58°18' W 134°24'0 0.0 250 1021.3 10.510.5
2020-Oct-01 05:00N 58°18' W 134°24'0 0.0 250 1020.4 10.210.2
2020-Oct-01 04:00N 58°18' W 134°24'0 0.0 250 1019.2 11.011.0
2020-Oct-01 03:00N 58°18' W 134°24'0 0.0 250 1017.9 11.611.6
2020-Oct-01 02:00N 58°18' W 134°24'0 0.0 260 1017.0 10.810.6
2020-Oct-01 01:00N 58°18' W 134°24'0 0.0 250 1016.1 10.3 9.8
2020-Oct-01 00:00N 58°18' W 134°24'0 0.0 250 1016.2 10.3 9.1
2020-Sep-30 23:00N 58°18' W 134°24'0 0.0 250 1014.4 11.0 8.4
2020-Sep-30 22:00N 58°18' W 134°24'0 0.0 260 1013.3 11.0 8.2
2020-Sep-30 21:00N 58°18' W 134°24'0 0.0 250 1013.3 10.9 8.0
2020-Sep-30 20:00N 58°18' W 134°24'0 0.0 250 1013.2 10.4 7.6
2020-Sep-30 19:00N 58°18' W 134°24'0 0.0 250 1013.6 10.3 7.9
2020-Sep-30 18:00N 58°18' W 134°24'0 0.0 250 1014.2 9.0 7.8
2020-Sep-30 17:00N 58°18' W 134°24'0 0.0 250 1012.8 8.2 7.8
2020-Sep-30 16:00N 58°18' W 134°24'0 0.0 250 1013.3 7.8 7.5
2020-Sep-30 15:00N 58°18' W 134°24'0 0.0 250 1013.9 7.6 7.3
2020-Sep-30 13:00N 58°18' W 134°24'0 0.0 250 1015.6 7.6 7.3
2020-Sep-30 12:00N 58°18' W 134°24'0 0.0 250 1016.7 7.9 7.6
2020-Sep-30 11:00N 58°18' W 134°24'0 0.0 250 1017.8 8.0 7.9
2020-Sep-30 10:00N 58°18' W 134°24'0 0.0 250 1018.7 8.6 8.3
2020-Sep-30 09:00N 58°18' W 134°24'0 0.0 250 1019.5 8.8 8.5
2020-Sep-30 08:00N 58°18' W 134°24'0 0.0 260 1020.4 9.0 8.7
2020-Sep-30 07:00N 58°18' W 134°24'0 0.0 250 1021.0 8.9 8.8
2020-Sep-30 06:00N 58°18' W 134°24'0 0.0 250 1021.8 9.1 8.8
2020-Sep-30 05:00N 58°18' W 134°24'0 0.0 250 1021.5 9.1 8.5
2020-Sep-30 04:00N 58°18' W 134°24'0 0.0 250 1022.2 9.3 8.5
2020-Sep-30 03:00N 58°18' W 134°24'0 0.0 250 1022.7 9.4 8.5
2020-Sep-30 02:00N 58°18' W 134°24'0 0.0 290 1022.1 9.4 8.2
2020-Sep-30 01:00N 58°18' W 134°24'0 0.0 250 1022.2 10.2 8.5
2020-Sep-30 00:00N 58°18' W 134°24'0 0.0 250 1022.5 10.0 7.9
2020-Sep-29 23:00N 58°18' W 134°24'0 0.0 250 1022.7 9.8 7.6
2020-Sep-29 22:00N 58°18' W 134°24'0 0.0 260 1023.3 9.6 8.8
2020-Sep-29 21:00N 58°18' W 134°24'0 0.0 250 1023.9 9.4 9.3
2020-Sep-29 20:00N 58°18' W 134°24'0 0.0 260 1023.9 8.2 8.2
2020-Sep-29 19:00N 58°18' W 134°24'0 0.0 250 1023.6 7.6 7.6
2020-Sep-29 18:00N 58°18' W 134°24'0 0.0 250 1023.8 6.6 6.6
2020-Sep-29 17:00N 58°18' W 134°24'0 0.0 250 1024.7 6.1 6.1
2020-Sep-29 16:00N 58°18' W 134°24'0 0.0 250 1025.2 5.4 5.4
2020-Sep-29 15:00N 58°18' W 134°24'0 0.0 250 1024.8 5.7 5.7
2020-Sep-29 14:00N 58°18' W 134°24'0 0.0 250 1025.0 5.7 5.7
2020-Sep-29 13:00N 58°18' W 134°24'0 0.0 250 1025.3 6.1 6.1
2020-Sep-29 12:00N 58°18' W 134°24'0 0.0 250 1025.6 6.5 6.5
2020-Sep-29 11:00N 58°18' W 134°24'0 0.0 250 1025.6 7.2 7.2
2020-Sep-29 10:00N 58°18' W 134°24'0 0.0 250 1025.6 7.7 7.7
2020-Sep-29 09:00N 58°18' W 134°24'0 0.0 250 1025.8 8.1 8.0
2020-Sep-29 08:00N 58°18' W 134°24'0 0.0 250 1025.3 8.3 8.0
2020-Sep-29 07:00N 58°18' W 134°24'0 0.0 250 1025.2 9.0 8.7
2020-Sep-29 06:00N 58°18' W 134°24'0 0.0 250 1024.4 9.1 8.5
2020-Sep-29 05:00N 58°18' W 134°24'0 0.0 250 1023.9 9.5 8.9
2020-Sep-29 04:00N 58°18' W 134°24'0 0.0 250 1023.9 9.7 8.9
2020-Sep-29 03:00N 58°18' W 134°24'0 0.0 250 1023.8 9.9 9.1
2020-Sep-29 02:00N 58°18' W 134°24'0 0.0 250 1023.3 10.3 9.4
2020-Sep-29 01:00N 58°18' W 134°24'0 0.0 250 1023.6 10.3 9.4
2020-Sep-29 00:00N 58°18' W 134°24'0 0.0 250 1023.0 10.5 9.3
2020-Sep-28 23:00N 58°18' W 134°24'0 0.0 250 1023.2 10.7 8.3
2020-Sep-28 22:00N 58°18' W 134°24'0 0.0 250 1022.7 10.9 7.4
2020-Sep-28 21:00N 58°18' W 134°24'0 0.0 250 1022.4 11.8 9.0
2020-Sep-28 20:00N 58°18' W 134°24'0 0.0 250 1022.2 10.4 9.3
2020-Sep-28 19:00N 58°18' W 134°24'0 0.0 250 1021.6 10.1 8.5
2020-Sep-28 18:00N 58°18' W 134°24'0 0.0 250 1020.9 10.1 8.4
2020-Sep-28 17:00N 58°18' W 134°24'0 0.0 250 1020.7 9.3 8.4
2020-Sep-28 16:00N 58°18' W 134°24'0 0.0 250 1019.0 9.3 8.5
2020-Sep-28 15:00N 58°18' W 134°24'0 0.0 250 1018.1 9.6 8.8
2020-Sep-28 14:00N 58°18' W 134°24'0 0.0 250 1017.4 9.8 9.0
2020-Sep-28 13:00N 58°18' W 134°24'0 0.0 250 1015.8 10.1 9.2
2020-Sep-28 12:00N 58°18' W 134°24'0 0.0 250 1014.7 10.7 8.6
2020-Sep-28 11:00N 58°18' W 134°24'0 0.0 250 1013.3 10.8 8.9
2020-Sep-28 10:00N 58°18' W 134°24'0 0.0 250 1011.5 11.3 8.3
2020-Sep-28 09:00N 58°18' W 134°24'0 0.0 250 1009.9 11.2 9.1
2020-Sep-28 08:00N 58°18' W 134°24'0 0.0 250 1008.4 11.1 9.4
2020-Sep-28 07:00N 58°18' W 134°24'0 0.0 250 1006.8 11.4 9.5
2020-Sep-28 06:00N 58°18' W 134°24'0 0.0 250 1005.1 11.1 9.7
2020-Sep-28 05:00N 58°18' W 134°24'0 0.0 250 1003.5 11.4 9.5
2020-Sep-28 04:00N 58°18' W 134°24'0 0.0 250 1001.9 11.6 9.7
2020-Sep-28 03:00N 58°18' W 134°24'0 0.0 250 1000.6 12.1 9.7
2020-Sep-28 02:00N 58°18' W 134°24'0 0.0 250 999.9 12.110.0
2020-Sep-28 01:00N 58°18' W 134°24'0 0.0 250 999.5 11.610.8
2020-Sep-28 00:00N 58°18' W 134°24'0 0.0 250 999.1 11.410.3
2020-Sep-27 23:00N 58°18' W 134°24'0 0.0 250 999.5 11.210.4
2020-Sep-27 22:00N 58°18' W 134°24'0 0.0 250 999.9 11.210.1
2020-Sep-27 21:00N 58°18' W 134°24'0 0.0 250 999.1 11.2 9.8
2020-Sep-27 20:00N 58°18' W 134°24'0 0.0 250 999.5 9.4 8.9
2020-Sep-27 19:00N 58°18' W 134°24'0 0.0 250 999.0 8.7 8.1
2020-Sep-27 18:00N 58°18' W 134°24'0 0.0 250 1000.1 8.8 7.7
2020-Sep-27 17:00N 58°18' W 134°24'0 0.0 250 1000.9 8.8 7.9
2020-Sep-27 16:00N 58°18' W 134°24'0 0.0 250 1002.6 8.7 7.8
2020-Sep-27 15:00N 58°18' W 134°24'0 0.0 250 1004.7 9.0 8.1
2020-Sep-27 13:00N 58°18' W 134°24'0 0.0 250 1008.8 10.0 7.9
2020-Sep-27 12:00N 58°18' W 134°24'0 0.0 250 1010.2 10.7 7.9
2020-Sep-27 11:00N 58°18' W 134°24'0 0.0 250 1011.2 10.6 8.4
2020-Sep-27 10:00N 58°18' W 134°24'0 0.0 250 1012.7 10.8 8.6
2020-Sep-27 09:00N 58°18' W 134°24'0 0.0 250 1013.3 10.4 9.0
2020-Sep-27 08:00N 58°18' W 134°24'0 0.0 250 1014.2 10.3 9.1
2020-Sep-27 07:00N 58°18' W 134°24'0 0.0 250 1015.0 10.3 9.1
2020-Sep-27 06:00N 58°18' W 134°24'0 0.0 250 1015.1 10.8 8.6
2020-Sep-27 05:00N 58°18' W 134°24'0 0.0 250 1015.0 10.5 8.9
2020-Sep-27 04:00N 58°18' W 134°24'0 0.0 250 1015.1 11.4 8.8
2020-Sep-27 03:00N 58°18' W 134°24'0 0.0 260 1015.0 11.0 9.1
2020-Sep-27 02:00N 58°18' W 134°24'0 0.0 250 1014.7 11.0 8.9
2020-Sep-27 01:00N 58°18' W 134°24'0 0.0 250 1013.9 11.0 8.9
2020-Sep-27 00:00N 58°18' W 134°24'0 0.0 250 1013.6 12.1 8.0
2020-Sep-26 23:00N 58°18' W 134°24'0 0.0 250 1013.0 12.0 8.3
2020-Sep-26 22:00N 58°18' W 134°24'0 0.0 250 1012.2 11.5 8.9
2020-Sep-26 21:00N 58°18' W 134°24'0 0.0 250 1011.5 11.0 9.3
2020-Sep-26 20:00N 58°18' W 134°24'0 0.0 250 1010.7 10.7 9.6
2020-Sep-26 19:00N 58°18' W 134°24'0 0.0 250 1009.2 10.4 9.3
2020-Sep-26 18:00N 58°18' W 134°24'0 0.0 250 1007.8 10.210.0
2020-Sep-26 17:00N 58°18' W 134°24'0 0.0 250 1006.8 10.110.1
2020-Sep-26 16:00N 58°18' W 134°24'0 0.0 250 1005.9 9.9 9.9
2020-Sep-26 15:00N 58°18' W 134°24'0 0.0 250 1004.8 10.010.0
2020-Sep-26 14:00N 58°18' W 134°24'0 0.0 250 1004.1 10.010.0
2020-Sep-26 13:00N 58°18' W 134°24'0 0.0 250 1003.3 9.9 9.9
2020-Sep-26 12:00N 58°18' W 134°24'0 0.0 280 1002.6 9.8 9.8
2020-Sep-26 11:00N 58°18' W 134°24'0 0.0 250 1001.8 9.9 9.9
2020-Sep-26 10:00N 58°18' W 134°24'0 0.0 250 1001.3 10.0 9.9
2020-Sep-26 09:00N 58°18' W 134°24'0 0.0 250 1000.4 10.0 9.5
2020-Sep-26 08:00N 58°18' W 134°24'0 0.0 250 999.6 10.1 9.3
2020-Sep-26 07:00N 58°18' W 134°24'0 0.0 250 998.8 10.3 9.4
2020-Sep-26 06:00N 58°18' W 134°24'0 0.0 250 997.9 10.4 9.3
2020-Sep-26 05:00N 58°18' W 134°24'0 0.0 250 997.1 10.4 9.2
2020-Sep-26 04:00N 58°18' W 134°24'0 0.0 250 996.5 10.5 9.4
2020-Sep-26 03:00N 58°18' W 134°24'0 0.0 260 996.2 10.5 9.3
2020-Sep-26 02:00N 58°18' W 134°24'0 0.0 250 995.4 10.6 9.0
2020-Sep-26 01:00N 58°18' W 134°24'0 0.0 250 994.8 11.0 8.8
2020-Sep-26 00:00N 58°18' W 134°24'0 0.0 250 994.2 11.4 9.3
2020-Sep-25 23:00N 58°18' W 134°24'0 0.0 250 993.9 11.6 8.6
2020-Sep-25 22:00N 58°18' W 134°24'0 0.0 250 993.4 11.8 9.2
2020-Sep-25 21:00N 58°18' W 134°24'0 0.0 250 992.8 11.210.4
2020-Sep-25 20:00N 58°18' W 134°24'0 0.0 250 992.2 11.211.0
2020-Sep-25 19:00N 58°18' W 134°24'0 0.0 250 991.6 10.410.4
2020-Sep-25 18:00N 58°18' W 134°24'0 0.0 250 991.3 9.1 9.1
2020-Sep-25 17:00N 58°18' W 134°24'0 0.0 250 990.7 8.9 8.9
2020-Sep-25 16:00N 58°18' W 134°24'0 0.0 250 991.0 7.5 7.5
2020-Sep-25 15:00N 58°18' W 134°24'0 0.0 250 991.0 7.3 7.3
2020-Sep-25 14:00N 58°18' W 134°24'0 0.0 250 991.2 7.5 7.5
2020-Sep-25 13:00N 58°18' W 134°24'0 0.0 250 991.5 7.8 7.8
2020-Sep-25 12:00N 58°18' W 134°24'0 0.0 260 991.8 9.0 9.0
2020-Sep-25 11:00N 58°18' W 134°24'0 0.0 280 992.1 9.7 9.7
2020-Sep-25 10:00N 58°18' W 134°24'0 0.0 250 992.6 10.310.3
2020-Sep-25 09:00N 58°18' W 134°24'0 0.0 250 993.2 10.410.4
2020-Sep-25 08:00N 58°18' W 134°24'0 0.0 250 993.3 10.310.3
2020-Sep-25 07:00N 58°18' W 134°24'0 0.0 250 993.2 9.9 9.9
2020-Sep-25 06:00N 58°18' W 134°24'0 0.0 250 993.0 10.210.2
2020-Sep-25 05:00N 58°18' W 134°24'0 0.0 250 992.6 10.110.1
2020-Sep-25 04:00N 58°18' W 134°24'0 0.0 250 992.6 9.9 9.9
2020-Sep-25 03:00N 58°18' W 134°24'0 0.0 250 992.4 10.210.2
2020-Sep-25 02:00N 58°18' W 134°24'0 0.0 250 992.1 10.810.8
2020-Sep-25 01:00N 58°18' W 134°24'0 0.0 260 992.1 10.710.7
2020-Sep-25 00:00N 58°18' W 134°24'0 0.0 250 992.7 10.610.6
2020-Sep-24 23:00N 58°18' W 134°24'0 0.0 250 993.0 10.210.2
2020-Sep-24 22:00N 58°18' W 134°24'0 0.0 250 992.8 11.111.1
2020-Sep-24 21:00N 58°18' W 134°24'0 0.0 260 993.0 10.910.9
2020-Sep-24 20:00N 58°18' W 134°24'0 0.0 250 993.2 9.8 9.8
2020-Sep-24 19:00N 58°18' W 134°24'0 0.0 250 993.2 9.3 9.3
2020-Sep-24 18:00N 58°18' W 134°24'0 0.0 250 992.7 9.2 9.2
2020-Sep-24 17:00N 58°18' W 134°24'0 0.0 250 991.9 8.9 8.9
2020-Sep-24 16:00N 58°18' W 134°24'0 0.0 250 991.3 8.9 8.9
2020-Sep-24 15:00N 58°18' W 134°24'0 0.0 250 991.2 8.6 8.6
2020-Sep-24 14:00N 58°18' W 134°24'0 0.0 250 991.5 8.1 8.1
2020-Sep-24 13:00N 58°18' W 134°24'0 0.0 250 991.5 7.9 7.9
2020-Sep-24 12:00N 58°18' W 134°24'0 0.0 250 991.5 7.7 7.7
2020-Sep-24 11:00N 58°18' W 134°24'0 0.0 250 991.6 8.3 8.3
2020-Sep-24 10:00N 58°18' W 134°24'0 0.0 250 991.8 8.9 8.9
2020-Sep-24 09:00N 58°18' W 134°24'0 0.0 250 991.8 9.5 9.5
2020-Sep-24 08:00N 58°18' W 134°24'0 0.0 250 991.6 9.8 9.8
2020-Sep-24 07:00N 58°18' W 134°24'0 0.0 250 991.5 10.210.2
2020-Sep-24 06:00N 58°18' W 134°24'0 0.0 250 991.3 10.810.8
2020-Sep-24 05:00N 58°18' W 134°24'0 0.0 250 991.3 11.010.8
2020-Sep-24 04:00N 58°18' W 134°24'0 0.0 250 991.0 11.411.1
2020-Sep-24 03:00N 58°18' W 134°24'0 0.0 250 991.3 11.010.8
2020-Sep-24 02:00N 58°18' W 134°24'0 0.0 250 991.0 11.110.8
2020-Sep-24 01:00N 58°18' W 134°24'0 0.0 250 990.9 10.710.1
2020-Sep-24 00:00N 58°18' W 134°24'0 0.0 250 991.0 11.210.1
2020-Sep-23 23:00N 58°18' W 134°24'0 0.0 250 991.0 11.510.2
2020-Sep-23 22:00N 58°18' W 134°24'0 0.0 250 991.0 12.610.3
2020-Sep-23 21:00N 58°18' W 134°24'0 0.0 250 991.6 11.9 9.8
2020-Sep-23 20:00N 58°18' W 134°24'0 0.0 250 991.3 12.711.4
2020-Sep-23 19:00N 58°18' W 134°24'0 0.0 250 991.8 11.710.8
2020-Sep-23 18:00N 58°18' W 134°24'0 0.0 250 991.8 11.0 9.9
2020-Sep-23 17:00N 58°18' W 134°24'0 0.0 250 992.2 10.6 9.4
2020-Sep-23 16:00N 58°18' W 134°24'0 0.0 250 991.8 11.3 8.7
2020-Sep-23 15:00N 58°18' W 134°24'0 0.0 250 990.9 11.9 7.6
2020-Sep-23 14:00N 58°18' W 134°24'0 0.0 250 990.6 14.0 8.2
2020-Sep-23 13:00N 58°18' W 134°24'0 0.0 250 991.8 9.4 9.4
2020-Sep-23 12:00N 58°18' W 134°24'0 0.0 250 992.9 9.2 9.2
2020-Sep-23 11:00N 58°18' W 134°24'0 0.0 250 994.2 9.2 9.2
2020-Sep-23 10:00N 58°18' W 134°24'0 0.0 250 995.1 9.3 9.2
2020-Sep-23 09:00N 58°18' W 134°24'0 0.0 250 996.4 9.4 9.3
2020-Sep-23 08:00N 58°18' W 134°24'0 0.0 250 997.3 9.6 9.3
2020-Sep-23 07:00N 58°18' W 134°24'0 0.0 250 998.5 10.0 9.5
2020-Sep-23 06:00N 58°18' W 134°24'0 0.0 250 999.8 10.0 9.4
2020-Sep-23 05:00N 58°18' W 134°24'0 0.0 250 1000.6 9.8 9.0
2020-Sep-23 04:00N 58°18' W 134°24'0 0.0 250 1001.2 10.1 9.0
2020-Sep-23 03:00N 58°18' W 134°24'0 0.0 250 1002.2 9.9 8.8
2020-Sep-23 02:00N 58°18' W 134°24'0 0.0 250 1002.7 10.3 9.1
2020-Sep-23 01:00N 58°18' W 134°24'0 0.0 250 1003.0 10.7 8.8
2020-Sep-23 00:00N 58°18' W 134°24'0 0.0 250 1003.5 11.3 8.7
2020-Sep-22 23:00N 58°18' W 134°24'0 0.0 250 1004.1 12.2 8.7
2020-Sep-22 22:00N 58°18' W 134°24'0 0.0 250 1004.8 12.0 8.3
2020-Sep-22 21:00N 58°18' W 134°24'0 0.0 260 1005.3 12.5 8.2
2020-Sep-22 20:00N 58°18' W 134°24'0 0.0 250 1006.0 12.4 7.7
2020-Sep-22 19:00N 58°18' W 134°24'0 0.0 250 1006.7 12.0 7.7
2020-Sep-22 18:00N 58°18' W 134°24'0 0.0 250 1007.0 11.9 7.6
2020-Sep-22 17:00N 58°18' W 134°24'0 0.0 250 1006.8 10.0 9.4
2020-Sep-22 16:00N 58°18' W 134°24'0 0.0 250 1007.2 9.9 9.3
2020-Sep-22 15:00N 58°18' W 134°24'0 0.0 250 1007.1 9.7 9.2
2020-Sep-22 14:00N 58°18' W 134°24'0 0.0 250 1007.3 9.9 9.0
2020-Sep-22 13:00N 58°18' W 134°24'0 0.0 250 1007.9 10.9 9.2
2020-Sep-22 12:00N 58°18' W 134°24'0 0.0 250 1008.5 9.7 9.7
2020-Sep-22 11:00N 58°18' W 134°24'0 0.0 250 1009.1 9.8 9.8
2020-Sep-22 10:00N 58°18' W 134°24'0 0.0 250 1009.5 10.210.0
2020-Sep-22 09:00N 58°18' W 134°24'0 0.0 250 1010.1 10.1 9.9
2020-Sep-22 08:00N 58°18' W 134°24'0 0.0 250 1010.3 10.310.1
2020-Sep-22 07:00N 58°18' W 134°24'0 0.0 250 1010.6 10.210.2
2020-Sep-22 06:00N 58°18' W 134°24'0 0.0 250 1010.7 10.210.0
2020-Sep-22 05:00N 58°18' W 134°24'0 0.0 250 1010.6 10.310.1
2020-Sep-22 04:00N 58°18' W 134°24'0 0.0 250 1010.7 10.310.1
2020-Sep-22 03:00N 58°18' W 134°24'0 0.0 250 1010.6 10.2 9.9
2020-Sep-22 02:00N 58°18' W 134°24'0 0.0 260 1010.4 10.0 9.5
2020-Sep-22 01:00N 58°18' W 134°24'0 0.0 250 1010.2 10.2 9.3
2020-Sep-22 00:00N 58°18' W 134°24'0 0.0 250 1010.6 11.0 8.8
2020-Sep-21 23:00N 58°18' W 134°24'0 0.0 250 1010.7 11.0 9.3
2020-Sep-21 22:00N 58°18' W 134°24'0 0.0 250 1010.9 11.0 9.1
2020-Sep-21 21:00N 58°18' W 134°24'0 0.0 250 1011.3 10.2 9.0
2020-Sep-21 20:00N 58°18' W 134°24'0 0.0 250 1011.2 10.6 9.5
2020-Sep-21 19:00N 58°18' W 134°24'0 0.0 250 1011.6 10.3 9.4
2020-Sep-21 18:00N 58°18' W 134°24'0 0.0 250 1011.8 9.8 9.0
2020-Sep-21 17:00N 58°18' W 134°24'0 0.0 250 1011.8 9.6 9.1
2020-Sep-21 16:00N 58°18' W 134°24'0 0.0 250 1011.2 9.6 9.1
2020-Sep-21 15:00N 58°18' W 134°24'0 0.0 250 1010.7 9.6 9.1
2020-Sep-21 14:00N 58°18' W 134°24'0 0.0 250 1010.3 9.5 9.2
2020-Sep-21 13:00N 58°18' W 134°24'0 0.0 250 1010.1 9.6 9.1
2020-Sep-21 12:00N 58°18' W 134°24'0 0.0 250 1009.9 9.5 9.0
2020-Sep-21 11:00N 58°18' W 134°24'   250 1009.9 9.6 9.1
Track history (hours):
 
Tides and Currents Weather Stations Pressure Air Temp Water Temp Dewpoint Dewpoint Depression Visibility Wind Speed Wind Dir Waves Ship Positions

Oceanographic research ship Rainier (USA)

Detailed information on ship capabilities available from University of Delaware's Ocean Information Center.

Last reported at 2020-Oct-01 11:00 UTC. Time now 2020-Oct-01 12:18 UTC.
Position N 58°18' W 134°24'.

Type: Other ship. MMSI: 303935000.

Wind from 250

Barometer 1024.2 mb
Air temperature 11.2 ° C
Dewpoint 11.2 ° C

Date/timePositionNaut miles runAvg speedWind from/ knotsBaromVisibWave heightAir tempDewpointWater temp
2020-Oct-01 11:00N 58°18' W 134°24'0 0.0 250 1024.2 11.211.2
2020-Oct-01 10:00N 58°18' W 134°24'0 0.0 250 1023.8 11.511.5
2020-Oct-01 09:00N 58°18' W 134°24'0 0.0 250 1023.2 11.111.1
2020-Oct-01 08:00N 58°18' W 134°24'0 0.0 250 1022.8 11.011.0
2020-Oct-01 07:00N 58°18' W 134°24'0 0.0 250 1022.1 10.410.4
2020-Oct-01 06:00N 58°18' W 134°24'0 0.0 250 1021.3 10.510.5
2020-Oct-01 05:00N 58°18' W 134°24'0 0.0 250 1020.4 10.210.2
2020-Oct-01 04:00N 58°18' W 134°24'0 0.0 250 1019.2 11.011.0
2020-Oct-01 03:00N 58°18' W 134°24'0 0.0 250 1017.9 11.611.6
2020-Oct-01 02:00N 58°18' W 134°24'0 0.0 260 1017.0 10.810.6
2020-Oct-01 01:00N 58°18' W 134°24'0 0.0 250 1016.1 10.3 9.8
2020-Oct-01 00:00N 58°18' W 134°24'0 0.0 250 1016.2 10.3 9.1
2020-Sep-30 23:00N 58°18' W 134°24'0 0.0 250 1014.4 11.0 8.4
2020-Sep-30 22:00N 58°18' W 134°24'0 0.0 260 1013.3 11.0 8.2
2020-Sep-30 21:00N 58°18' W 134°24'0 0.0 250 1013.3 10.9 8.0
2020-Sep-30 20:00N 58°18' W 134°24'0 0.0 250 1013.2 10.4 7.6
2020-Sep-30 19:00N 58°18' W 134°24'0 0.0 250 1013.6 10.3 7.9
2020-Sep-30 18:00N 58°18' W 134°24'0 0.0 250 1014.2 9.0 7.8
2020-Sep-30 17:00N 58°18' W 134°24'0 0.0 250 1012.8 8.2 7.8
2020-Sep-30 16:00N 58°18' W 134°24'0 0.0 250 1013.3 7.8 7.5
2020-Sep-30 15:00N 58°18' W 134°24'0 0.0 250 1013.9 7.6 7.3
2020-Sep-30 13:00N 58°18' W 134°24'0 0.0 250 1015.6 7.6 7.3
2020-Sep-30 12:00N 58°18' W 134°24'0 0.0 250 1016.7 7.9 7.6
2020-Sep-30 11:00N 58°18' W 134°24'0 0.0 250 1017.8 8.0 7.9
2020-Sep-30 10:00N 58°18' W 134°24'0 0.0 250 1018.7 8.6 8.3
2020-Sep-30 09:00N 58°18' W 134°24'0 0.0 250 1019.5 8.8 8.5
2020-Sep-30 08:00N 58°18' W 134°24'0 0.0 260 1020.4 9.0 8.7
2020-Sep-30 07:00N 58°18' W 134°24'0 0.0 250 1021.0 8.9 8.8
2020-Sep-30 06:00N 58°18' W 134°24'0 0.0 250 1021.8 9.1 8.8
2020-Sep-30 05:00N 58°18' W 134°24'0 0.0 250 1021.5 9.1 8.5
2020-Sep-30 04:00N 58°18' W 134°24'0 0.0 250 1022.2 9.3 8.5
2020-Sep-30 03:00N 58°18' W 134°24'0 0.0 250 1022.7 9.4 8.5
2020-Sep-30 02:00N 58°18' W 134°24'0 0.0 290 1022.1 9.4 8.2
2020-Sep-30 01:00N 58°18' W 134°24'0 0.0 250 1022.2 10.2 8.5
2020-Sep-30 00:00N 58°18' W 134°24'0 0.0 250 1022.5 10.0 7.9
2020-Sep-29 23:00N 58°18' W 134°24'0 0.0 250 1022.7 9.8 7.6
2020-Sep-29 22:00N 58°18' W 134°24'0 0.0 260 1023.3 9.6 8.8
2020-Sep-29 21:00N 58°18' W 134°24'0 0.0 250 1023.9 9.4 9.3
2020-Sep-29 20:00N 58°18' W 134°24'0 0.0 260 1023.9 8.2 8.2
2020-Sep-29 19:00N 58°18' W 134°24'0 0.0 250 1023.6 7.6 7.6
2020-Sep-29 18:00N 58°18' W 134°24'0 0.0 250 1023.8 6.6 6.6
2020-Sep-29 17:00N 58°18' W 134°24'0 0.0 250 1024.7 6.1 6.1
2020-Sep-29 16:00N 58°18' W 134°24'0 0.0 250 1025.2 5.4 5.4
2020-Sep-29 15:00N 58°18' W 134°24'0 0.0 250 1024.8 5.7 5.7
2020-Sep-29 14:00N 58°18' W 134°24'0 0.0 250 1025.0 5.7 5.7
2020-Sep-29 13:00N 58°18' W 134°24'0 0.0 250 1025.3 6.1 6.1
2020-Sep-29 12:00N 58°18' W 134°24'0 0.0 250 1025.6 6.5 6.5
2020-Sep-29 11:00N 58°18' W 134°24'0 0.0 250 1025.6 7.2 7.2
2020-Sep-29 10:00N 58°18' W 134°24'0 0.0 250 1025.6 7.7 7.7
2020-Sep-29 09:00N 58°18' W 134°24'0 0.0 250 1025.8 8.1 8.0
2020-Sep-29 08:00N 58°18' W 134°24'0 0.0 250 1025.3 8.3 8.0
2020-Sep-29 07:00N 58°18' W 134°24'0 0.0 250 1025.2 9.0 8.7
2020-Sep-29 06:00N 58°18' W 134°24'0 0.0 250 1024.4 9.1 8.5
2020-Sep-29 05:00N 58°18' W 134°24'0 0.0 250 1023.9 9.5 8.9
2020-Sep-29 04:00N 58°18' W 134°24'0 0.0 250 1023.9 9.7 8.9
2020-Sep-29 03:00N 58°18' W 134°24'0 0.0 250 1023.8 9.9 9.1
2020-Sep-29 02:00N 58°18' W 134°24'0 0.0 250 1023.3 10.3 9.4
2020-Sep-29 01:00N 58°18' W 134°24'0 0.0 250 1023.6 10.3 9.4
2020-Sep-29 00:00N 58°18' W 134°24'0 0.0 250 1023.0 10.5 9.3
2020-Sep-28 23:00N 58°18' W 134°24'0 0.0 250 1023.2 10.7 8.3
2020-Sep-28 22:00N 58°18' W 134°24'0 0.0 250 1022.7 10.9 7.4
2020-Sep-28 21:00N 58°18' W 134°24'0 0.0 250 1022.4 11.8 9.0
2020-Sep-28 20:00N 58°18' W 134°24'0 0.0 250 1022.2 10.4 9.3
2020-Sep-28 19:00N 58°18' W 134°24'0 0.0 250 1021.6 10.1 8.5
2020-Sep-28 18:00N 58°18' W 134°24'0 0.0 250 1020.9 10.1 8.4
2020-Sep-28 17:00N 58°18' W 134°24'0 0.0 250 1020.7 9.3 8.4
2020-Sep-28 16:00N 58°18' W 134°24'0 0.0 250 1019.0 9.3 8.5
2020-Sep-28 15:00N 58°18' W 134°24'0 0.0 250 1018.1 9.6 8.8
2020-Sep-28 14:00N 58°18' W 134°24'0 0.0 250 1017.4 9.8 9.0
2020-Sep-28 13:00N 58°18' W 134°24'0 0.0 250 1015.8 10.1 9.2
2020-Sep-28 12:00N 58°18' W 134°24'0 0.0 250 1014.7 10.7 8.6
2020-Sep-28 11:00N 58°18' W 134°24'0 0.0 250 1013.3 10.8 8.9
2020-Sep-28 10:00N 58°18' W 134°24'0 0.0 250 1011.5 11.3 8.3
2020-Sep-28 09:00N 58°18' W 134°24'0 0.0 250 1009.9 11.2 9.1
2020-Sep-28 08:00N 58°18' W 134°24'0 0.0 250 1008.4 11.1 9.4
2020-Sep-28 07:00N 58°18' W 134°24'0 0.0 250 1006.8 11.4 9.5
2020-Sep-28 06:00N 58°18' W 134°24'0 0.0 250 1005.1 11.1 9.7
2020-Sep-28 05:00N 58°18' W 134°24'0 0.0 250 1003.5 11.4 9.5
2020-Sep-28 04:00N 58°18' W 134°24'0 0.0 250 1001.9 11.6 9.7
2020-Sep-28 03:00N 58°18' W 134°24'0 0.0 250 1000.6 12.1 9.7
2020-Sep-28 02:00N 58°18' W 134°24'0 0.0 250 999.9 12.110.0
2020-Sep-28 01:00N 58°18' W 134°24'0 0.0 250 999.5 11.610.8
2020-Sep-28 00:00N 58°18' W 134°24'0 0.0 250 999.1 11.410.3
2020-Sep-27 23:00N 58°18' W 134°24'0 0.0 250 999.5 11.210.4
2020-Sep-27 22:00N 58°18' W 134°24'0 0.0 250 999.9 11.210.1
2020-Sep-27 21:00N 58°18' W 134°24'0 0.0 250 999.1 11.2 9.8
2020-Sep-27 20:00N 58°18' W 134°24'0 0.0 250 999.5 9.4 8.9
2020-Sep-27 19:00N 58°18' W 134°24'0 0.0 250 999.0 8.7 8.1
2020-Sep-27 18:00N 58°18' W 134°24'0 0.0 250 1000.1 8.8 7.7
2020-Sep-27 17:00N 58°18' W 134°24'0 0.0 250 1000.9 8.8 7.9
2020-Sep-27 16:00N 58°18' W 134°24'0 0.0 250 1002.6 8.7 7.8
2020-Sep-27 15:00N 58°18' W 134°24'0 0.0 250 1004.7 9.0 8.1
2020-Sep-27 13:00N 58°18' W 134°24'0 0.0 250 1008.8 10.0 7.9
2020-Sep-27 12:00N 58°18' W 134°24'0 0.0 250 1010.2 10.7 7.9
2020-Sep-27 11:00N 58°18' W 134°24'0 0.0 250 1011.2 10.6 8.4
2020-Sep-27 10:00N 58°18' W 134°24'0 0.0 250 1012.7 10.8 8.6
2020-Sep-27 09:00N 58°18' W 134°24'0 0.0 250 1013.3 10.4 9.0
2020-Sep-27 08:00N 58°18' W 134°24'0 0.0 250 1014.2 10.3 9.1
2020-Sep-27 07:00N 58°18' W 134°24'0 0.0 250 1015.0 10.3 9.1
2020-Sep-27 06:00N 58°18' W 134°24'0 0.0 250 1015.1 10.8 8.6
2020-Sep-27 05:00N 58°18' W 134°24'0 0.0 250 1015.0 10.5 8.9
2020-Sep-27 04:00N 58°18' W 134°24'0 0.0 250 1015.1 11.4 8.8
2020-Sep-27 03:00N 58°18' W 134°24'0 0.0 260 1015.0 11.0 9.1
2020-Sep-27 02:00N 58°18' W 134°24'0 0.0 250 1014.7 11.0 8.9
2020-Sep-27 01:00N 58°18' W 134°24'0 0.0 250 1013.9 11.0 8.9
2020-Sep-27 00:00N 58°18' W 134°24'0 0.0 250 1013.6 12.1 8.0
2020-Sep-26 23:00N 58°18' W 134°24'0 0.0 250 1013.0 12.0 8.3
2020-Sep-26 22:00N 58°18' W 134°24'0 0.0 250 1012.2 11.5 8.9
2020-Sep-26 21:00N 58°18' W 134°24'0 0.0 250 1011.5 11.0 9.3
2020-Sep-26 20:00N 58°18' W 134°24'0 0.0 250 1010.7 10.7 9.6
2020-Sep-26 19:00N 58°18' W 134°24'0 0.0 250 1009.2 10.4 9.3
2020-Sep-26 18:00N 58°18' W 134°24'0 0.0 250 1007.8 10.210.0
2020-Sep-26 17:00N 58°18' W 134°24'0 0.0 250 1006.8 10.110.1
2020-Sep-26 16:00N 58°18' W 134°24'0 0.0 250 1005.9 9.9 9.9
2020-Sep-26 15:00N 58°18' W 134°24'0 0.0 250 1004.8 10.010.0
2020-Sep-26 14:00N 58°18' W 134°24'0 0.0 250 1004.1 10.010.0
2020-Sep-26 13:00N 58°18' W 134°24'0 0.0 250 1003.3 9.9 9.9
2020-Sep-26 12:00N 58°18' W 134°24'0 0.0 280 1002.6 9.8 9.8
2020-Sep-26 11:00N 58°18' W 134°24'0 0.0 250 1001.8 9.9 9.9
2020-Sep-26 10:00N 58°18' W 134°24'0 0.0 250 1001.3 10.0 9.9
2020-Sep-26 09:00N 58°18' W 134°24'0 0.0 250 1000.4 10.0 9.5
2020-Sep-26 08:00N 58°18' W 134°24'0 0.0 250 999.6 10.1 9.3
2020-Sep-26 07:00N 58°18' W 134°24'0 0.0 250 998.8 10.3 9.4
2020-Sep-26 06:00N 58°18' W 134°24'0 0.0 250 997.9 10.4 9.3
2020-Sep-26 05:00N 58°18' W 134°24'0 0.0 250 997.1 10.4 9.2
2020-Sep-26 04:00N 58°18' W 134°24'0 0.0 250 996.5 10.5 9.4
2020-Sep-26 03:00N 58°18' W 134°24'0 0.0 260 996.2 10.5 9.3
2020-Sep-26 02:00N 58°18' W 134°24'0 0.0 250 995.4 10.6 9.0
2020-Sep-26 01:00N 58°18' W 134°24'0 0.0 250 994.8 11.0 8.8
2020-Sep-26 00:00N 58°18' W 134°24'0 0.0 250 994.2 11.4 9.3
2020-Sep-25 23:00N 58°18' W 134°24'0 0.0 250 993.9 11.6 8.6
2020-Sep-25 22:00N 58°18' W 134°24'0 0.0 250 993.4 11.8 9.2
2020-Sep-25 21:00N 58°18' W 134°24'0 0.0 250 992.8 11.210.4
2020-Sep-25 20:00N 58°18' W 134°24'0 0.0 250 992.2 11.211.0
2020-Sep-25 19:00N 58°18' W 134°24'0 0.0 250 991.6 10.410.4
2020-Sep-25 18:00N 58°18' W 134°24'0 0.0 250 991.3 9.1 9.1
2020-Sep-25 17:00N 58°18' W 134°24'0 0.0 250 990.7 8.9 8.9
2020-Sep-25 16:00N 58°18' W 134°24'0 0.0 250 991.0 7.5 7.5
2020-Sep-25 15:00N 58°18' W 134°24'0 0.0 250 991.0 7.3 7.3
2020-Sep-25 14:00N 58°18' W 134°24'0 0.0 250 991.2 7.5 7.5
2020-Sep-25 13:00N 58°18' W 134°24'0 0.0 250 991.5 7.8 7.8
2020-Sep-25 12:00N 58°18' W 134°24'0 0.0 260 991.8 9.0 9.0
2020-Sep-25 11:00N 58°18' W 134°24'0 0.0 280 992.1 9.7 9.7
2020-Sep-25 10:00N 58°18' W 134°24'0 0.0 250 992.6 10.310.3
2020-Sep-25 09:00N 58°18' W 134°24'0 0.0 250 993.2 10.410.4
2020-Sep-25 08:00N 58°18' W 134°24'0 0.0 250 993.3 10.310.3
2020-Sep-25 07:00N 58°18' W 134°24'0 0.0 250 993.2 9.9 9.9
2020-Sep-25 06:00N 58°18' W 134°24'0 0.0 250 993.0 10.210.2
2020-Sep-25 05:00N 58°18' W 134°24'0 0.0 250 992.6 10.110.1
2020-Sep-25 04:00N 58°18' W 134°24'0 0.0 250 992.6 9.9 9.9
2020-Sep-25 03:00N 58°18' W 134°24'0 0.0 250 992.4 10.210.2
2020-Sep-25 02:00N 58°18' W 134°24'0 0.0 250 992.1 10.810.8
2020-Sep-25 01:00N 58°18' W 134°24'0 0.0 260 992.1 10.710.7
2020-Sep-25 00:00N 58°18' W 134°24'0 0.0 250 992.7 10.610.6
2020-Sep-24 23:00N 58°18' W 134°24'0 0.0 250 993.0 10.210.2
2020-Sep-24 22:00N 58°18' W 134°24'0 0.0 250 992.8 11.111.1
2020-Sep-24 21:00N 58°18' W 134°24'0 0.0 260 993.0 10.910.9
2020-Sep-24 20:00N 58°18' W 134°24'0 0.0 250 993.2 9.8 9.8
2020-Sep-24 19:00N 58°18' W 134°24'0 0.0 250 993.2 9.3 9.3
2020-Sep-24 18:00N 58°18' W 134°24'0 0.0 250 992.7 9.2 9.2
2020-Sep-24 17:00N 58°18' W 134°24'0 0.0 250 991.9 8.9 8.9
2020-Sep-24 16:00N 58°18' W 134°24'0 0.0 250 991.3 8.9 8.9
2020-Sep-24 15:00N 58°18' W 134°24'0 0.0 250 991.2 8.6 8.6
2020-Sep-24 14:00N 58°18' W 134°24'0 0.0 250 991.5 8.1 8.1
2020-Sep-24 13:00N 58°18' W 134°24'0 0.0 250 991.5 7.9 7.9
2020-Sep-24 12:00N 58°18' W 134°24'0 0.0 250 991.5 7.7 7.7
2020-Sep-24 11:00N 58°18' W 134°24'0 0.0 250 991.6 8.3 8.3
2020-Sep-24 10:00N 58°18' W 134°24'0 0.0 250 991.8 8.9 8.9
2020-Sep-24 09:00N 58°18' W 134°24'0 0.0 250 991.8 9.5 9.5
2020-Sep-24 08:00N 58°18' W 134°24'0 0.0 250 991.6 9.8 9.8
2020-Sep-24 07:00N 58°18' W 134°24'0 0.0 250 991.5 10.210.2
2020-Sep-24 06:00N 58°18' W 134°24'0 0.0 250 991.3 10.810.8
2020-Sep-24 05:00N 58°18' W 134°24'0 0.0 250 991.3 11.010.8
2020-Sep-24 04:00N 58°18' W 134°24'0 0.0 250 991.0 11.411.1
2020-Sep-24 03:00N 58°18' W 134°24'0 0.0 250 991.3 11.010.8
2020-Sep-24 02:00N 58°18' W 134°24'0 0.0 250 991.0 11.110.8
2020-Sep-24 01:00N 58°18' W 134°24'0 0.0 250 990.9 10.710.1
2020-Sep-24 00:00N 58°18' W 134°24'0 0.0 250 991.0 11.210.1
2020-Sep-23 23:00N 58°18' W 134°24'0 0.0 250 991.0 11.510.2
2020-Sep-23 22:00N 58°18' W 134°24'0 0.0 250 991.0 12.610.3
2020-Sep-23 21:00N 58°18' W 134°24'0 0.0 250 991.6 11.9 9.8
2020-Sep-23 20:00N 58°18' W 134°24'0 0.0 250 991.3 12.711.4
2020-Sep-23 19:00N 58°18' W 134°24'0 0.0 250 991.8 11.710.8
2020-Sep-23 18:00N 58°18' W 134°24'0 0.0 250 991.8 11.0 9.9
2020-Sep-23 17:00N 58°18' W 134°24'0 0.0 250 992.2 10.6 9.4
2020-Sep-23 16:00N 58°18' W 134°24'0 0.0 250 991.8 11.3 8.7
2020-Sep-23 15:00N 58°18' W 134°24'0 0.0 250 990.9 11.9 7.6
2020-Sep-23 14:00N 58°18' W 134°24'0 0.0 250 990.6 14.0 8.2
2020-Sep-23 13:00N 58°18' W 134°24'0 0.0 250 991.8 9.4 9.4
2020-Sep-23 12:00N 58°18' W 134°24'0 0.0 250 992.9 9.2 9.2
2020-Sep-23 11:00N 58°18' W 134°24'0 0.0 250 994.2 9.2 9.2
2020-Sep-23 10:00N 58°18' W 134°24'0 0.0 250 995.1 9.3 9.2
2020-Sep-23 09:00N 58°18' W 134°24'0 0.0 250 996.4 9.4 9.3
2020-Sep-23 08:00N 58°18' W 134°24'0 0.0 250 997.3 9.6 9.3
2020-Sep-23 07:00N 58°18' W 134°24'0 0.0 250 998.5 10.0 9.5
2020-Sep-23 06:00N 58°18' W 134°24'0 0.0 250 999.8 10.0 9.4
2020-Sep-23 05:00N 58°18' W 134°24'0 0.0 250 1000.6 9.8 9.0
2020-Sep-23 04:00N 58°18' W 134°24'0 0.0 250 1001.2 10.1 9.0
2020-Sep-23 03:00N 58°18' W 134°24'0 0.0 250 1002.2 9.9 8.8
2020-Sep-23 02:00N 58°18' W 134°24'0 0.0 250 1002.7 10.3 9.1
2020-Sep-23 01:00N 58°18' W 134°24'0 0.0 250 1003.0 10.7 8.8
2020-Sep-23 00:00N 58°18' W 134°24'0 0.0 250 1003.5 11.3 8.7
2020-Sep-22 23:00N 58°18' W 134°24'0 0.0 250 1004.1 12.2 8.7
2020-Sep-22 22:00N 58°18' W 134°24'0 0.0 250 1004.8 12.0 8.3
2020-Sep-22 21:00N 58°18' W 134°24'0 0.0 260 1005.3 12.5 8.2
2020-Sep-22 20:00N 58°18' W 134°24'0 0.0 250 1006.0 12.4 7.7
2020-Sep-22 19:00N 58°18' W 134°24'0 0.0 250 1006.7 12.0 7.7
2020-Sep-22 18:00N 58°18' W 134°24'0 0.0 250 1007.0 11.9 7.6
2020-Sep-22 17:00N 58°18' W 134°24'0 0.0 250 1006.8 10.0 9.4
2020-Sep-22 16:00N 58°18' W 134°24'0 0.0 250 1007.2 9.9 9.3
2020-Sep-22 15:00N 58°18' W 134°24'0 0.0 250 1007.1 9.7 9.2
2020-Sep-22 14:00N 58°18' W 134°24'0 0.0 250 1007.3 9.9 9.0
2020-Sep-22 13:00N 58°18' W 134°24'0 0.0 250 1007.9 10.9 9.2
2020-Sep-22 12:00N 58°18' W 134°24'0 0.0 250 1008.5 9.7 9.7
2020-Sep-22 11:00N 58°18' W 134°24'0 0.0 250 1009.1 9.8 9.8
2020-Sep-22 10:00N 58°18' W 134°24'0 0.0 250 1009.5 10.210.0
2020-Sep-22 09:00N 58°18' W 134°24'0 0.0 250 1010.1 10.1 9.9
2020-Sep-22 08:00N 58°18' W 134°24'0 0.0 250 1010.3 10.310.1
2020-Sep-22 07:00N 58°18' W 134°24'0 0.0 250 1010.6 10.210.2
2020-Sep-22 06:00N 58°18' W 134°24'0 0.0 250 1010.7 10.210.0
2020-Sep-22 05:00N 58°18' W 134°24'0 0.0 250 1010.6 10.310.1
2020-Sep-22 04:00N 58°18' W 134°24'0 0.0 250 1010.7 10.310.1
2020-Sep-22 03:00N 58°18' W 134°24'0 0.0 250 1010.6 10.2 9.9
2020-Sep-22 02:00N 58°18' W 134°24'0 0.0 260 1010.4 10.0 9.5
2020-Sep-22 01:00N 58°18' W 134°24'0 0.0 250 1010.2 10.2 9.3
2020-Sep-22 00:00N 58°18' W 134°24'0 0.0 250 1010.6 11.0 8.8
2020-Sep-21 23:00N 58°18' W 134°24'0 0.0 250 1010.7 11.0 9.3
2020-Sep-21 22:00N 58°18' W 134°24'0 0.0 250 1010.9 11.0 9.1
2020-Sep-21 21:00N 58°18' W 134°24'0 0.0 250 1011.3 10.2 9.0
2020-Sep-21 20:00N 58°18' W 134°24'0 0.0 250 1011.2 10.6 9.5
2020-Sep-21 19:00N 58°18' W 134°24'0 0.0 250 1011.6 10.3 9.4
2020-Sep-21 18:00N 58°18' W 134°24'0 0.0 250 1011.8 9.8 9.0
2020-Sep-21 17:00N 58°18' W 134°24'0 0.0 250 1011.8 9.6 9.1
2020-Sep-21 16:00N 58°18' W 134°24'0 0.0 250 1011.2 9.6 9.1
2020-Sep-21 15:00N 58°18' W 134°24'0 0.0 250 1010.7 9.6 9.1
2020-Sep-21 14:00N 58°18' W 134°24'0 0.0 250 1010.3 9.5 9.2
2020-Sep-21 13:00N 58°18' W 134°24'0 0.0 250 1010.1 9.6 9.1
2020-Sep-21 12:00N 58°18' W 134°24'0 0.0 250 1009.9 9.5 9.0
2020-Sep-21 11:00N 58°18' W 134°24'   250 1009.9 9.6 9.1

Dump ship's entire track history